sensor_id;sensor_type;location;lat;lon;timestamp;temperature;humidity
76102;SHT30;64830;46.910;6.354;2023-12-28T00:01:46;7.06;47.98
76102;SHT30;64830;46.910;6.354;2023-12-28T00:04:12;7.03;48.25
76102;SHT30;64830;46.910;6.354;2023-12-28T00:06:37;7.00;47.57
76102;SHT30;64830;46.910;6.354;2023-12-28T00:09:03;6.97;47.86
76102;SHT30;64830;46.910;6.354;2023-12-28T00:11:29;6.97;47.43
76102;SHT30;64830;46.910;6.354;2023-12-28T00:13:54;7.00;47.39
76102;SHT30;64830;46.910;6.354;2023-12-28T00:16:20;7.03;47.04
76102;SHT30;64830;46.910;6.354;2023-12-28T00:18:45;7.06;46.76
76102;SHT30;64830;46.910;6.354;2023-12-28T00:21:10;7.11;46.90
76102;SHT30;64830;46.910;6.354;2023-12-28T00:23:36;7.15;46.87
76102;SHT30;64830;46.910;6.354;2023-12-28T00:26:01;7.17;46.64
76102;SHT30;64830;46.910;6.354;2023-12-28T00:28:28;7.21;46.16
76102;SHT30;64830;46.910;6.354;2023-12-28T00:30:53;7.25;46.39
76102;SHT30;64830;46.910;6.354;2023-12-28T00:33:18;7.31;46.35
76102;SHT30;64830;46.910;6.354;2023-12-28T00:35:44;7.34;46.41
76102;SHT30;64830;46.910;6.354;2023-12-28T00:38:09;7.36;45.83
76102;SHT30;64830;46.910;6.354;2023-12-28T00:40:35;7.41;46.43
76102;SHT30;64830;46.910;6.354;2023-12-28T00:43:00;7.45;45.84
76102;SHT30;64830;46.910;6.354;2023-12-28T00:45:25;7.52;45.05
76102;SHT30;64830;46.910;6.354;2023-12-28T00:47:51;7.58;46.07
76102;SHT30;64830;46.910;6.354;2023-12-28T00:50:17;7.59;46.10
76102;SHT30;64830;46.910;6.354;2023-12-28T00:52:42;7.56;46.97
76102;SHT30;64830;46.910;6.354;2023-12-28T00:55:08;7.47;47.03
76102;SHT30;64830;46.910;6.354;2023-12-28T00:57:34;7.41;47.71
76102;SHT30;64830;46.910;6.354;2023-12-28T00:59:59;7.32;47.39
76102;SHT30;64830;46.910;6.354;2023-12-28T01:02:25;7.24;47.65
76102;SHT30;64830;46.910;6.354;2023-12-28T01:04:50;7.17;47.64
76102;SHT30;64830;46.910;6.354;2023-12-28T01:07:16;7.11;47.96
76102;SHT30;64830;46.910;6.354;2023-12-28T01:09:41;7.04;47.90
76102;SHT30;64830;46.910;6.354;2023-12-28T01:12:06;6.96;47.65
76102;SHT30;64830;46.910;6.354;2023-12-28T01:14:32;6.99;47.73
76102;SHT30;64830;46.910;6.354;2023-12-28T01:16:58;7.00;47.73
76102;SHT30;64830;46.910;6.354;2023-12-28T01:19:23;6.99;47.53
76102;SHT30;64830;46.910;6.354;2023-12-28T01:21:49;6.97;47.55
76102;SHT30;64830;46.910;6.354;2023-12-28T01:24:15;6.99;49.03
76102;SHT30;64830;46.910;6.354;2023-12-28T01:26:40;6.95;48.59
76102;SHT30;64830;46.910;6.354;2023-12-28T01:29:05;6.86;50.72
76102;SHT30;64830;46.910;6.354;2023-12-28T01:31:31;6.76;50.21
76102;SHT30;64830;46.910;6.354;2023-12-28T01:33:56;6.71;49.99
76102;SHT30;64830;46.910;6.354;2023-12-28T01:36:22;6.69;49.78
76102;SHT30;64830;46.910;6.354;2023-12-28T01:38:48;6.67;49.78
76102;SHT30;64830;46.910;6.354;2023-12-28T01:41:13;6.65;49.38
76102;SHT30;64830;46.910;6.354;2023-12-28T01:43:43;6.64;50.34
76102;SHT30;64830;46.910;6.354;2023-12-28T01:46:15;6.64;50.16
76102;SHT30;64830;46.910;6.354;2023-12-28T01:48:42;6.59;49.93
76102;SHT30;64830;46.910;6.354;2023-12-28T01:51:09;6.56;49.61
76102;SHT30;64830;46.910;6.354;2023-12-28T01:53:35;6.52;50.03
76102;SHT30;64830;46.910;6.354;2023-12-28T01:56:00;6.51;50.12
76102;SHT30;64830;46.910;6.354;2023-12-28T01:58:28;6.42;51.59
76102;SHT30;64830;46.910;6.354;2023-12-28T02:00:55;6.38;50.83
76102;SHT30;64830;46.910;6.354;2023-12-28T02:03:21;6.35;51.07
76102;SHT30;64830;46.910;6.354;2023-12-28T02:05:46;6.33;51.37
76102;SHT30;64830;46.910;6.354;2023-12-28T02:08:12;6.27;51.50
76102;SHT30;64830;46.910;6.354;2023-12-28T02:10:39;6.24;51.63
76102;SHT30;64830;46.910;6.354;2023-12-28T02:13:04;6.20;51.78
76102;SHT30;64830;46.910;6.354;2023-12-28T02:15:29;6.17;52.77
76102;SHT30;64830;46.910;6.354;2023-12-28T02:18:00;6.11;52.40
76102;SHT30;64830;46.910;6.354;2023-12-28T02:20:29;6.10;52.54
76102;SHT30;64830;46.910;6.354;2023-12-28T02:22:55;6.06;51.82
76102;SHT30;64830;46.910;6.354;2023-12-28T02:25:21;6.07;52.33
76102;SHT30;64830;46.910;6.354;2023-12-28T02:27:48;6.07;52.35
76102;SHT30;64830;46.910;6.354;2023-12-28T02:30:18;6.02;52.41
76102;SHT30;64830;46.910;6.354;2023-12-28T02:33:02;6.06;52.09
76102;SHT30;64830;46.910;6.354;2023-12-28T02:35:49;6.05;52.13
76102;SHT30;64830;46.910;6.354;2023-12-28T02:38:17;6.05;52.57
76102;SHT30;64830;46.910;6.354;2023-12-28T02:40:44;6.03;52.16
76102;SHT30;64830;46.910;6.354;2023-12-28T02:43:11;6.06;51.48
76102;SHT30;64830;46.910;6.354;2023-12-28T02:45:37;6.11;51.10
76102;SHT30;64830;46.910;6.354;2023-12-28T02:48:04;6.14;51.16
76102;SHT30;64830;46.910;6.354;2023-12-28T02:50:29;6.17;51.32
76102;SHT30;64830;46.910;6.354;2023-12-28T02:52:58;6.18;51.43
76102;SHT30;64830;46.910;6.354;2023-12-28T02:55:24;6.17;51.72
76102;SHT30;64830;46.910;6.354;2023-12-28T02:57:50;6.17;52.13
76102;SHT30;64830;46.910;6.354;2023-12-28T03:00:16;6.14;52.08
76102;SHT30;64830;46.910;6.354;2023-12-28T03:02:42;6.13;52.38
76102;SHT30;64830;46.910;6.354;2023-12-28T03:05:08;6.11;52.84
76102;SHT30;64830;46.910;6.354;2023-12-28T03:07:34;6.06;53.00
76102;SHT30;64830;46.910;6.354;2023-12-28T03:10:00;6.07;53.51
76102;SHT30;64830;46.910;6.354;2023-12-28T03:12:25;5.96;53.78
76102;SHT30;64830;46.910;6.354;2023-12-28T03:14:51;5.93;54.47
76102;SHT30;64830;46.910;6.354;2023-12-28T03:17:16;5.86;55.00
76102;SHT30;64830;46.910;6.354;2023-12-28T03:19:41;5.82;53.93
76102;SHT30;64830;46.910;6.354;2023-12-28T03:22:07;5.82;54.75
76102;SHT30;64830;46.910;6.354;2023-12-28T03:24:32;5.78;54.42
76102;SHT30;64830;46.910;6.354;2023-12-28T03:26:58;5.73;55.17
76102;SHT30;64830;46.910;6.354;2023-12-28T03:29:24;5.69;54.71
76102;SHT30;64830;46.910;6.354;2023-12-28T03:31:49;5.69;54.32
76102;SHT30;64830;46.910;6.354;2023-12-28T03:34:15;5.66;54.28
76102;SHT30;64830;46.910;6.354;2023-12-28T03:36:41;5.68;54.61
76102;SHT30;64830;46.910;6.354;2023-12-28T03:39:07;5.69;54.46
76102;SHT30;64830;46.910;6.354;2023-12-28T03:41:33;5.66;54.61
76102;SHT30;64830;46.910;6.354;2023-12-28T03:43:58;5.63;55.47
76102;SHT30;64830;46.910;6.354;2023-12-28T03:46:24;5.63;55.58
76102;SHT30;64830;46.910;6.354;2023-12-28T03:48:49;5.58;55.33
76102;SHT30;64830;46.910;6.354;2023-12-28T03:51:15;5.58;54.99
76102;SHT30;64830;46.910;6.354;2023-12-28T03:53:42;5.59;54.84
76102;SHT30;64830;46.910;6.354;2023-12-28T03:56:07;5.56;56.17
76102;SHT30;64830;46.910;6.354;2023-12-28T03:58:32;5.56;55.48
76102;SHT30;64830;46.910;6.354;2023-12-28T04:00:58;5.52;54.98
76102;SHT30;64830;46.910;6.354;2023-12-28T04:03:24;5.55;54.92
76102;SHT30;64830;46.910;6.354;2023-12-28T04:05:50;5.54;54.57
76102;SHT30;64830;46.910;6.354;2023-12-28T04:08:16;5.58;54.54
76102;SHT30;64830;46.910;6.354;2023-12-28T04:10:41;5.58;54.84
76102;SHT30;64830;46.910;6.354;2023-12-28T04:13:07;5.56;55.41
76102;SHT30;64830;46.910;6.354;2023-12-28T04:15:32;5.55;55.36
76102;SHT30;64830;46.910;6.354;2023-12-28T04:17:58;5.50;55.02
76102;SHT30;64830;46.910;6.354;2023-12-28T04:20:23;5.48;55.39
76102;SHT30;64830;46.910;6.354;2023-12-28T04:22:49;5.47;55.80
76102;SHT30;64830;46.910;6.354;2023-12-28T04:25:14;5.44;56.05
76102;SHT30;64830;46.910;6.354;2023-12-28T04:27:43;5.45;56.51
76102;SHT30;64830;46.910;6.354;2023-12-28T04:30:11;5.43;56.91
76102;SHT30;64830;46.910;6.354;2023-12-28T04:32:37;5.40;56.72
76102;SHT30;64830;46.910;6.354;2023-12-28T04:35:03;5.38;57.19
76102;SHT30;64830;46.910;6.354;2023-12-28T04:37:29;5.35;57.27
76102;SHT30;64830;46.910;6.354;2023-12-28T04:39:56;5.33;57.26
76102;SHT30;64830;46.910;6.354;2023-12-28T04:42:22;5.31;57.53
76102;SHT30;64830;46.910;6.354;2023-12-28T04:44:47;5.31;57.15
76102;SHT30;64830;46.910;6.354;2023-12-28T04:47:12;5.30;57.31
76102;SHT30;64830;46.910;6.354;2023-12-28T04:49:38;5.26;57.35
76102;SHT30;64830;46.910;6.354;2023-12-28T04:52:03;5.22;57.36
76102;SHT30;64830;46.910;6.354;2023-12-28T04:54:29;5.20;57.68
76102;SHT30;64830;46.910;6.354;2023-12-28T04:56:55;5.19;57.98
76102;SHT30;64830;46.910;6.354;2023-12-28T04:59:20;5.19;57.99
76102;SHT30;64830;46.910;6.354;2023-12-28T05:01:46;5.19;57.76
76102;SHT30;64830;46.910;6.354;2023-12-28T05:04:11;5.15;57.62
76102;SHT30;64830;46.910;6.354;2023-12-28T05:06:37;5.19;57.40
76102;SHT30;64830;46.910;6.354;2023-12-28T05:09:03;5.20;57.02
76102;SHT30;64830;46.910;6.354;2023-12-28T05:11:29;5.26;57.08
76102;SHT30;64830;46.910;6.354;2023-12-28T05:13:54;5.28;57.25
76102;SHT30;64830;46.910;6.354;2023-12-28T05:16:20;5.27;57.13
76102;SHT30;64830;46.910;6.354;2023-12-28T05:18:46;5.30;57.35
76102;SHT30;64830;46.910;6.354;2023-12-28T05:21:12;5.28;57.29
76102;SHT30;64830;46.910;6.354;2023-12-28T05:23:38;5.28;57.00
76102;SHT30;64830;46.910;6.354;2023-12-28T05:26:04;5.31;57.07
76102;SHT30;64830;46.910;6.354;2023-12-28T05:28:29;5.33;56.74
76102;SHT30;64830;46.910;6.354;2023-12-28T05:30:55;5.37;56.56
76102;SHT30;64830;46.910;6.354;2023-12-28T05:33:20;5.40;56.24
76102;SHT30;64830;46.910;6.354;2023-12-28T05:35:46;5.43;56.12
76102;SHT30;64830;46.910;6.354;2023-12-28T05:38:11;5.48;55.74
76102;SHT30;64830;46.910;6.354;2023-12-28T05:40:36;5.51;55.82
76102;SHT30;64830;46.910;6.354;2023-12-28T05:43:02;5.52;55.78
76102;SHT30;64830;46.910;6.354;2023-12-28T05:45:27;5.55;56.23
76102;SHT30;64830;46.910;6.354;2023-12-28T05:47:53;5.55;56.53
76102;SHT30;64830;46.910;6.354;2023-12-28T05:50:18;5.56;56.24
76102;SHT30;64830;46.910;6.354;2023-12-28T05:52:44;5.56;55.99
76102;SHT30;64830;46.910;6.354;2023-12-28T05:55:09;5.58;56.11
76102;SHT30;64830;46.910;6.354;2023-12-28T05:57:35;5.59;56.14
76102;SHT30;64830;46.910;6.354;2023-12-28T06:00:00;5.58;55.89
76102;SHT30;64830;46.910;6.354;2023-12-28T06:02:25;5.62;56.06
76102;SHT30;64830;46.910;6.354;2023-12-28T06:04:51;5.62;56.45
76102;SHT30;64830;46.910;6.354;2023-12-28T06:07:16;5.61;56.34
76102;SHT30;64830;46.910;6.354;2023-12-28T06:09:42;5.56;58.55
76102;SHT30;64830;46.910;6.354;2023-12-28T06:12:07;5.55;57.62
76102;SHT30;64830;46.910;6.354;2023-12-28T06:14:33;5.56;57.18
76102;SHT30;64830;46.910;6.354;2023-12-28T06:16:58;5.52;57.45
76102;SHT30;64830;46.910;6.354;2023-12-28T06:19:23;5.51;57.57
76102;SHT30;64830;46.910;6.354;2023-12-28T06:21:49;5.50;57.18
76102;SHT30;64830;46.910;6.354;2023-12-28T06:24:15;5.47;56.79
76102;SHT30;64830;46.910;6.354;2023-12-28T06:26:44;5.52;57.52
76102;SHT30;64830;46.910;6.354;2023-12-28T06:29:09;5.52;57.69
76102;SHT30;64830;46.910;6.354;2023-12-28T06:31:38;5.52;57.50
76102;SHT30;64830;46.910;6.354;2023-12-28T06:34:04;5.51;57.70
76102;SHT30;64830;46.910;6.354;2023-12-28T06:36:30;5.51;57.49
76102;SHT30;64830;46.910;6.354;2023-12-28T06:38:56;5.52;57.80
76102;SHT30;64830;46.910;6.354;2023-12-28T06:41:21;5.52;57.80
76102;SHT30;64830;46.910;6.354;2023-12-28T06:43:47;5.48;58.46
76102;SHT30;64830;46.910;6.354;2023-12-28T06:46:12;5.48;58.72
76102;SHT30;64830;46.910;6.354;2023-12-28T06:48:38;5.44;59.81
76102;SHT30;64830;46.910;6.354;2023-12-28T06:51:06;5.41;59.73
76102;SHT30;64830;46.910;6.354;2023-12-28T06:53:31;5.38;59.60
76102;SHT30;64830;46.910;6.354;2023-12-28T06:55:56;5.34;59.80
76102;SHT30;64830;46.910;6.354;2023-12-28T06:58:22;5.34;60.28
76102;SHT30;64830;46.910;6.354;2023-12-28T07:00:47;5.30;60.29
76102;SHT30;64830;46.910;6.354;2023-12-28T07:03:13;5.31;60.51
76102;SHT30;64830;46.910;6.354;2023-12-28T07:05:38;5.27;60.92
76102;SHT30;64830;46.910;6.354;2023-12-28T07:08:04;5.20;61.92
76102;SHT30;64830;46.910;6.354;2023-12-28T07:10:29;5.19;62.12
76102;SHT30;64830;46.910;6.354;2023-12-28T07:12:54;5.15;61.64
76102;SHT30;64830;46.910;6.354;2023-12-28T07:15:20;5.16;61.74
76102;SHT30;64830;46.910;6.354;2023-12-28T07:17:45;5.15;61.59
76102;SHT30;64830;46.910;6.354;2023-12-28T07:20:11;5.15;61.70
76102;SHT30;64830;46.910;6.354;2023-12-28T07:22:37;5.12;62.01
76102;SHT30;64830;46.910;6.354;2023-12-28T07:25:07;5.13;62.41
76102;SHT30;64830;46.910;6.354;2023-12-28T07:27:33;5.09;62.77
76102;SHT30;64830;46.910;6.354;2023-12-28T07:29:59;5.09;62.67
76102;SHT30;64830;46.910;6.354;2023-12-28T07:32:25;5.10;62.77
76102;SHT30;64830;46.910;6.354;2023-12-28T07:34:54;5.10;62.62
76102;SHT30;64830;46.910;6.354;2023-12-28T07:37:20;5.09;62.65
76102;SHT30;64830;46.910;6.354;2023-12-28T07:39:46;5.10;63.18
76102;SHT30;64830;46.910;6.354;2023-12-28T07:42:12;5.09;63.05
76102;SHT30;64830;46.910;6.354;2023-12-28T07:44:37;5.09;62.62
76102;SHT30;64830;46.910;6.354;2023-12-28T07:47:03;5.09;62.73
76102;SHT30;64830;46.910;6.354;2023-12-28T07:49:30;5.15;62.96
76102;SHT30;64830;46.910;6.354;2023-12-28T07:51:56;5.15;63.20
76102;SHT30;64830;46.910;6.354;2023-12-28T07:54:21;5.19;63.07
76102;SHT30;64830;46.910;6.354;2023-12-28T07:56:46;5.22;62.88
76102;SHT30;64830;46.910;6.354;2023-12-28T07:59:12;5.26;63.02
76102;SHT30;64830;46.910;6.354;2023-12-28T08:01:37;5.28;62.77
76102;SHT30;64830;46.910;6.354;2023-12-28T08:04:03;5.31;62.73
76102;SHT30;64830;46.910;6.354;2023-12-28T08:06:29;5.35;62.17
76102;SHT30;64830;46.910;6.354;2023-12-28T08:08:58;5.40;62.60
76102;SHT30;64830;46.910;6.354;2023-12-28T08:11:26;5.44;62.19
76102;SHT30;64830;46.910;6.354;2023-12-28T08:13:51;5.50;61.87
76102;SHT30;64830;46.910;6.354;2023-12-28T08:16:17;5.51;61.59
76102;SHT30;64830;46.910;6.354;2023-12-28T08:18:42;5.56;61.76
76102;SHT30;64830;46.910;6.354;2023-12-28T08:21:08;5.62;62.16
76102;SHT30;64830;46.910;6.354;2023-12-28T08:23:33;5.65;61.66
76102;SHT30;64830;46.910;6.354;2023-12-28T08:25:58;5.71;61.92
76102;SHT30;64830;46.910;6.354;2023-12-28T08:28:24;5.73;61.92
76102;SHT30;64830;46.910;6.354;2023-12-28T08:30:49;5.79;61.68
76102;SHT30;64830;46.910;6.354;2023-12-28T08:33:14;5.83;61.85
76102;SHT30;64830;46.910;6.354;2023-12-28T08:35:40;5.88;62.12
76102;SHT30;64830;46.910;6.354;2023-12-28T08:38:06;5.88;61.63
76102;SHT30;64830;46.910;6.354;2023-12-28T08:40:32;5.93;61.96
76102;SHT30;64830;46.910;6.354;2023-12-28T08:42:57;5.97;61.48
76102;SHT30;64830;46.910;6.354;2023-12-28T08:45:23;6.03;61.57
76102;SHT30;64830;46.910;6.354;2023-12-28T08:47:48;6.05;61.24
76102;SHT30;64830;46.910;6.354;2023-12-28T08:50:14;6.10;61.44
76102;SHT30;64830;46.910;6.354;2023-12-28T08:52:39;6.17;60.79
76102;SHT30;64830;46.910;6.354;2023-12-28T08:55:05;6.21;60.51
76102;SHT30;64830;46.910;6.354;2023-12-28T08:57:30;6.30;60.16
76102;SHT30;64830;46.910;6.354;2023-12-28T08:59:56;6.37;59.26
76102;SHT30;64830;46.910;6.354;2023-12-28T09:02:22;6.45;58.78
76102;SHT30;64830;46.910;6.354;2023-12-28T09:04:48;6.53;58.99
76102;SHT30;64830;46.910;6.354;2023-12-28T09:07:14;6.64;58.99
76102;SHT30;64830;46.910;6.354;2023-12-28T09:09:39;6.69;57.54
76102;SHT30;64830;46.910;6.354;2023-12-28T09:12:05;6.82;56.88
76102;SHT30;64830;46.910;6.354;2023-12-28T09:14:30;6.95;56.83
76102;SHT30;64830;46.910;6.354;2023-12-28T09:16:56;7.03;56.39
76102;SHT30;64830;46.910;6.354;2023-12-28T09:19:22;7.15;56.14
76102;SHT30;64830;46.910;6.354;2023-12-28T09:21:49;7.23;56.50
76102;SHT30;64830;46.910;6.354;2023-12-28T09:24:14;7.31;56.59
76102;SHT30;64830;46.910;6.354;2023-12-28T09:26:41;7.40;56.39
76102;SHT30;64830;46.910;6.354;2023-12-28T09:29:06;7.42;55.79
76102;SHT30;64830;46.910;6.354;2023-12-28T09:31:32;7.48;56.32
76102;SHT30;64830;46.910;6.354;2023-12-28T09:33:58;7.52;56.49
76102;SHT30;64830;46.910;6.354;2023-12-28T09:36:24;7.59;56.47
76102;SHT30;64830;46.910;6.354;2023-12-28T09:38:50;7.68;56.62
76102;SHT30;64830;46.910;6.354;2023-12-28T09:41:16;7.75;55.25
76102;SHT30;64830;46.910;6.354;2023-12-28T09:43:53;7.83;56.00
76102;SHT30;64830;46.910;6.354;2023-12-28T09:46:20;7.94;56.22
76102;SHT30;64830;46.910;6.354;2023-12-28T09:48:45;8.04;54.86
76102;SHT30;64830;46.910;6.354;2023-12-28T09:51:12;8.15;55.86
76102;SHT30;64830;46.910;6.354;2023-12-28T09:53:37;8.24;55.08
76102;SHT30;64830;46.910;6.354;2023-12-28T09:56:04;8.34;55.71
76102;SHT30;64830;46.910;6.354;2023-12-28T09:58:33;8.44;55.30
76102;SHT30;64830;46.910;6.354;2023-12-28T10:00:59;8.55;54.62
76102;SHT30;64830;46.910;6.354;2023-12-28T10:03:25;8.66;54.12
76102;SHT30;64830;46.910;6.354;2023-12-28T10:05:51;8.81;54.17
76102;SHT30;64830;46.910;6.354;2023-12-28T10:08:16;8.97;54.73
76102;SHT30;64830;46.910;6.354;2023-12-28T10:10:44;9.11;53.60
76102;SHT30;64830;46.910;6.354;2023-12-28T10:13:16;9.24;53.14
76102;SHT30;64830;46.910;6.354;2023-12-28T10:15:42;9.38;51.36
76102;SHT30;64830;46.910;6.354;2023-12-28T10:18:09;9.53;52.47
76102;SHT30;64830;46.910;6.354;2023-12-28T10:20:34;9.63;51.15
76102;SHT30;64830;46.910;6.354;2023-12-28T10:23:00;9.77;52.62
76102;SHT30;64830;46.910;6.354;2023-12-28T10:25:27;9.84;52.06
76102;SHT30;64830;46.910;6.354;2023-12-28T10:27:53;9.90;52.27
76102;SHT30;64830;46.910;6.354;2023-12-28T10:30:22;10.02;51.05
76102;SHT30;64830;46.910;6.354;2023-12-28T10:32:48;10.10;50.68
76102;SHT30;64830;46.910;6.354;2023-12-28T10:35:13;10.21;50.51
76102;SHT30;64830;46.910;6.354;2023-12-28T10:37:40;10.32;50.14
76102;SHT30;64830;46.910;6.354;2023-12-28T10:40:12;10.36;49.92
76102;SHT30;64830;46.910;6.354;2023-12-28T10:42:49;10.45;50.76
76102;SHT30;64830;46.910;6.354;2023-12-28T10:45:16;10.52;50.67
76102;SHT30;64830;46.910;6.354;2023-12-28T10:47:52;10.56;51.23
76102;SHT30;64830;46.910;6.354;2023-12-28T10:50:19;10.62;50.35
76102;SHT30;64830;46.910;6.354;2023-12-28T10:52:51;10.56;50.27
76102;SHT30;64830;46.910;6.354;2023-12-28T10:55:36;10.50;51.38
76102;SHT30;64830;46.910;6.354;2023-12-28T10:58:10;10.46;52.96
76102;SHT30;64830;46.910;6.354;2023-12-28T11:00:47;10.42;53.34
76102;SHT30;64830;46.910;6.354;2023-12-28T11:03:18;10.29;53.51
76102;SHT30;64830;46.910;6.354;2023-12-28T11:05:49;10.21;54.30
76102;SHT30;64830;46.910;6.354;2023-12-28T11:08:14;10.15;54.73
76102;SHT30;64830;46.910;6.354;2023-12-28T11:10:41;10.10;55.20
76102;SHT30;64830;46.910;6.354;2023-12-28T11:13:08;10.04;55.64
76102;SHT30;64830;46.910;6.354;2023-12-28T11:15:36;9.97;55.79
76102;SHT30;64830;46.910;6.354;2023-12-28T11:18:03;9.89;56.31
76102;SHT30;64830;46.910;6.354;2023-12-28T11:20:29;9.84;56.72
76102;SHT30;64830;46.910;6.354;2023-12-28T11:22:55;9.80;56.91
76102;SHT30;64830;46.910;6.354;2023-12-28T11:25:22;9.79;56.95
76102;SHT30;64830;46.910;6.354;2023-12-28T11:27:47;9.80;57.13
76102;SHT30;64830;46.910;6.354;2023-12-28T11:30:13;9.79;57.76
76102;SHT30;64830;46.910;6.354;2023-12-28T11:32:42;9.73;57.38
76102;SHT30;64830;46.910;6.354;2023-12-28T11:35:10;9.72;57.13
76102;SHT30;64830;46.910;6.354;2023-12-28T11:37:39;9.69;57.33
76102;SHT30;64830;46.910;6.354;2023-12-28T11:40:11;9.72;57.82
76102;SHT30;64830;46.910;6.354;2023-12-28T11:42:36;9.72;58.44
76102;SHT30;64830;46.910;6.354;2023-12-28T11:45:16;9.74;58.92
76102;SHT30;64830;46.910;6.354;2023-12-28T11:47:41;9.76;58.91
76102;SHT30;64830;46.910;6.354;2023-12-28T11:50:07;9.83;59.15
76102;SHT30;64830;46.910;6.354;2023-12-28T11:52:33;9.84;59.14
76102;SHT30;64830;46.910;6.354;2023-12-28T11:54:59;9.90;59.16
76102;SHT30;64830;46.910;6.354;2023-12-28T11:57:26;10.00;59.51
76102;SHT30;64830;46.910;6.354;2023-12-28T11:59:59;10.02;59.50
76102;SHT30;64830;46.910;6.354;2023-12-28T12:02:25;10.04;59.60
76102;SHT30;64830;46.910;6.354;2023-12-28T12:04:51;10.08;60.34
76102;SHT30;64830;46.910;6.354;2023-12-28T12:07:17;10.11;60.27
76102;SHT30;64830;46.910;6.354;2023-12-28T12:09:42;10.15;60.35
76102;SHT30;64830;46.910;6.354;2023-12-28T12:12:08;10.18;60.85
76102;SHT30;64830;46.910;6.354;2023-12-28T12:14:34;10.19;61.08
76102;SHT30;64830;46.910;6.354;2023-12-28T12:17:00;10.21;61.43
76102;SHT30;64830;46.910;6.354;2023-12-28T12:19:26;10.22;62.15
76102;SHT30;64830;46.910;6.354;2023-12-28T12:21:52;10.22;62.16
76102;SHT30;64830;46.910;6.354;2023-12-28T12:24:18;10.25;62.68
76102;SHT30;64830;46.910;6.354;2023-12-28T12:26:45;10.28;62.53
76102;SHT30;64830;46.910;6.354;2023-12-28T12:29:11;10.36;62.27
76102;SHT30;64830;46.910;6.354;2023-12-28T12:31:37;10.46;62.33
76102;SHT30;64830;46.910;6.354;2023-12-28T12:34:16;10.53;62.24
76102;SHT30;64830;46.910;6.354;2023-12-28T12:36:41;10.65;62.59
76102;SHT30;64830;46.910;6.354;2023-12-28T12:39:07;10.67;61.70
76102;SHT30;64830;46.910;6.354;2023-12-28T12:41:34;10.74;61.21
76102;SHT30;64830;46.910;6.354;2023-12-28T12:44:00;10.74;59.91
76102;SHT30;64830;46.910;6.354;2023-12-28T12:46:26;10.76;60.64
76102;SHT30;64830;46.910;6.354;2023-12-28T12:48:59;10.76;60.21
76102;SHT30;64830;46.910;6.354;2023-12-28T12:51:25;10.74;59.89
76102;SHT30;64830;46.910;6.354;2023-12-28T12:53:59;10.77;59.57
76102;SHT30;64830;46.910;6.354;2023-12-28T12:56:26;10.74;59.44
76102;SHT30;64830;46.910;6.354;2023-12-28T12:58:52;10.76;59.45
76102;SHT30;64830;46.910;6.354;2023-12-28T13:01:18;10.77;59.70
76102;SHT30;64830;46.910;6.354;2023-12-28T13:03:45;10.73;59.55
76102;SHT30;64830;46.910;6.354;2023-12-28T13:06:11;10.74;59.84
76102;SHT30;64830;46.910;6.354;2023-12-28T13:08:36;10.74;59.66
76102;SHT30;64830;46.910;6.354;2023-12-28T13:11:01;10.70;59.38
76102;SHT30;64830;46.910;6.354;2023-12-28T13:13:27;10.69;59.94
76102;SHT30;64830;46.910;6.354;2023-12-28T13:15:52;10.69;60.10
76102;SHT30;64830;46.910;6.354;2023-12-28T13:18:18;10.67;59.67
76102;SHT30;64830;46.910;6.354;2023-12-28T13:20:43;10.60;60.26
76102;SHT30;64830;46.910;6.354;2023-12-28T13:23:10;10.60;60.09
76102;SHT30;64830;46.910;6.354;2023-12-28T13:25:35;10.60;60.13
76102;SHT30;64830;46.910;6.354;2023-12-28T13:28:01;10.59;60.09
76102;SHT30;64830;46.910;6.354;2023-12-28T13:30:26;10.57;60.44
76102;SHT30;64830;46.910;6.354;2023-12-28T13:32:54;10.59;60.45
76102;SHT30;64830;46.910;6.354;2023-12-28T13:35:22;10.59;60.57
76102;SHT30;64830;46.910;6.354;2023-12-28T13:37:47;10.59;60.20
76102;SHT30;64830;46.910;6.354;2023-12-28T13:40:13;10.57;59.97
76102;SHT30;64830;46.910;6.354;2023-12-28T13:42:38;10.57;60.33
76102;SHT30;64830;46.910;6.354;2023-12-28T13:45:04;10.55;60.44
76102;SHT30;64830;46.910;6.354;2023-12-28T13:47:29;10.56;60.70
76102;SHT30;64830;46.910;6.354;2023-12-28T13:49:55;10.56;60.98
76102;SHT30;64830;46.910;6.354;2023-12-28T13:52:20;10.59;61.18
76102;SHT30;64830;46.910;6.354;2023-12-28T13:54:46;10.62;60.70
76102;SHT30;64830;46.910;6.354;2023-12-28T13:57:11;10.59;60.87
76102;SHT30;64830;46.910;6.354;2023-12-28T13:59:37;10.65;60.87
76102;SHT30;64830;46.910;6.354;2023-12-28T14:02:02;10.63;61.20
76102;SHT30;64830;46.910;6.354;2023-12-28T14:04:28;10.63;61.09
76102;SHT30;64830;46.910;6.354;2023-12-28T14:06:54;10.62;61.13
76102;SHT30;64830;46.910;6.354;2023-12-28T14:09:19;10.60;61.11
76102;SHT30;64830;46.910;6.354;2023-12-28T14:11:47;10.63;61.28
76102;SHT30;64830;46.910;6.354;2023-12-28T14:14:12;10.62;60.71
76102;SHT30;64830;46.910;6.354;2023-12-28T14:16:38;10.57;60.59
76102;SHT30;64830;46.910;6.354;2023-12-28T14:19:04;10.56;61.35
76102;SHT30;64830;46.910;6.354;2023-12-28T14:21:34;10.52;61.52
76102;SHT30;64830;46.910;6.354;2023-12-28T14:24:00;10.52;61.59
76102;SHT30;64830;46.910;6.354;2023-12-28T14:26:26;10.48;61.79
76102;SHT30;64830;46.910;6.354;2023-12-28T14:28:52;10.48;61.48
76102;SHT30;64830;46.910;6.354;2023-12-28T14:31:18;10.48;61.84
76102;SHT30;64830;46.910;6.354;2023-12-28T14:33:44;10.45;62.01
76102;SHT30;64830;46.910;6.354;2023-12-28T14:36:22;10.45;61.87
76102;SHT30;64830;46.910;6.354;2023-12-28T14:38:49;10.42;61.77
76102;SHT30;64830;46.910;6.354;2023-12-28T14:41:15;10.41;62.02
76102;SHT30;64830;46.910;6.354;2023-12-28T14:43:40;10.41;62.19
76102;SHT30;64830;46.910;6.354;2023-12-28T14:46:06;10.34;61.60
76102;SHT30;64830;46.910;6.354;2023-12-28T14:48:31;10.29;61.75
76102;SHT30;64830;46.910;6.354;2023-12-28T14:50:56;10.27;61.70
76102;SHT30;64830;46.910;6.354;2023-12-28T14:53:22;10.27;61.91
76102;SHT30;64830;46.910;6.354;2023-12-28T14:55:49;10.24;62.08
76102;SHT30;64830;46.910;6.354;2023-12-28T14:58:15;10.21;62.48
76102;SHT30;64830;46.910;6.354;2023-12-28T15:00:43;10.18;62.29
76102;SHT30;64830;46.910;6.354;2023-12-28T15:03:08;10.15;62.12
76102;SHT30;64830;46.910;6.354;2023-12-28T15:05:34;10.12;62.05
76102;SHT30;64830;46.910;6.354;2023-12-28T15:08:00;10.14;61.77
76102;SHT30;64830;46.910;6.354;2023-12-28T15:10:25;10.10;62.01
76102;SHT30;64830;46.910;6.354;2023-12-28T15:12:51;10.10;62.15
76102;SHT30;64830;46.910;6.354;2023-12-28T15:15:17;10.08;62.33
76102;SHT30;64830;46.910;6.354;2023-12-28T15:17:42;10.05;62.35
76102;SHT30;64830;46.910;6.354;2023-12-28T15:20:08;10.05;62.44
76102;SHT30;64830;46.910;6.354;2023-12-28T15:22:34;10.07;62.72
76102;SHT30;64830;46.910;6.354;2023-12-28T15:24:59;10.02;63.63
76102;SHT30;64830;46.910;6.354;2023-12-28T15:27:25;9.95;63.68
76102;SHT30;64830;46.910;6.354;2023-12-28T15:29:51;9.91;63.88
76102;SHT30;64830;46.910;6.354;2023-12-28T15:32:16;9.89;64.44
76102;SHT30;64830;46.910;6.354;2023-12-28T15:34:42;9.84;65.03
76102;SHT30;64830;46.910;6.354;2023-12-28T15:37:07;9.83;65.03